createdAt,value
2022-09-20T00:01:35.947Z,14.82
2022-09-20T00:04:07.045Z,14.60
2022-09-20T00:06:36.672Z,13.38
2022-09-20T00:09:06.416Z,16.45
2022-09-20T00:11:37.057Z,18.30
2022-09-20T00:14:09.405Z,18.63
2022-09-20T00:16:42.471Z,16.52
2022-09-20T00:19:19.860Z,14.20
2022-09-20T00:21:48.973Z,14.10
2022-09-20T00:24:17.563Z,13.82
2022-09-20T00:26:46.216Z,16.27
2022-09-20T00:29:15.389Z,15.00
2022-09-20T00:31:45.402Z,13.98
2022-09-20T00:34:31.541Z,15.55
2022-09-20T00:37:00.303Z,15.95
2022-09-20T00:39:29.034Z,16.45
2022-09-20T00:41:57.658Z,13.88
2022-09-20T00:44:45.497Z,16.75
2022-09-20T00:47:35.691Z,16.13
2022-09-20T00:50:28.949Z,12.43
2022-09-20T00:53:05.500Z,15.25
2022-09-20T00:55:39.633Z,15.35
2022-09-20T00:58:09.773Z,14.05
2022-09-20T01:00:40.185Z,12.40
2022-09-20T01:03:12.400Z,15.85
2022-09-20T01:05:45.401Z,11.32
2022-09-20T01:08:14.866Z,12.15
2022-09-20T01:10:44.004Z,13.68
2022-09-20T01:13:12.680Z,12.57
2022-09-20T01:15:43.903Z,11.55
2022-09-20T01:18:16.146Z,14.00
2022-09-20T01:20:48.397Z,12.27
2022-09-20T01:23:50.862Z,12.70
2022-09-20T01:27:06.943Z,13.35
2022-09-20T01:30:08.300Z,14.32
2022-09-20T01:32:57.778Z,13.75
2022-09-20T01:35:29.107Z,13.60
2022-09-20T01:38:27.050Z,13.13
2022-09-20T01:41:06.052Z,12.52
2022-09-20T01:43:42.718Z,12.30
2022-09-20T01:46:31.966Z,11.48
2022-09-20T01:49:21.198Z,16.08
2022-09-20T01:52:53.964Z,13.77
2022-09-20T01:56:14.595Z,12.20
2022-09-20T01:59:24.694Z,10.65
2022-09-20T02:02:40.783Z,11.90
2022-09-20T02:05:43.423Z,13.50
2022-09-20T02:09:07.914Z,11.48
2022-09-20T02:11:52.222Z,11.88
2022-09-20T02:14:54.138Z,13.88
2022-09-20T02:17:35.482Z,10.27
2022-09-20T02:20:33.377Z,16.02
2022-09-20T02:23:24.738Z,10.60
2022-09-20T02:26:21.277Z,12.63
2022-09-20T02:29:03.127Z,15.60
2022-09-20T02:32:00.030Z,12.80
2022-09-20T02:34:52.443Z,13.93
2022-09-20T02:38:04.909Z,13.82
2022-09-20T02:41:07.066Z,11.73
2022-09-20T02:43:49.440Z,14.55
2022-09-20T02:46:29.437Z,14.95
2022-09-20T02:49:09.002Z,14.02
2022-09-20T02:51:44.898Z,11.40
2022-09-20T02:54:35.189Z,12.50
2022-09-20T02:57:16.870Z,12.95
2022-09-20T02:59:53.729Z,13.05
2022-09-20T03:02:31.735Z,12.68
2022-09-20T03:05:15.677Z,13.45
2022-09-20T03:08:20.291Z,12.77
2022-09-20T03:11:00.374Z,10.50
2022-09-20T03:13:50.351Z,13.40
2022-09-20T03:16:33.566Z,13.57
2022-09-20T03:19:18.285Z,13.68
2022-09-20T03:22:04.542Z,11.93
2022-09-20T03:24:53.241Z,11.68
2022-09-20T03:27:31.995Z,11.05
2022-09-20T03:30:34.168Z,14.20
2022-09-20T03:33:16.931Z,12.95
2022-09-20T03:36:08.707Z,13.25
2022-09-20T03:38:58.441Z,10.80
2022-09-20T03:41:58.041Z,14.80
2022-09-20T03:44:48.761Z,10.70
2022-09-20T03:47:42.871Z,15.23
2022-09-20T03:50:34.836Z,14.02
2022-09-20T03:53:58.894Z,13.45
2022-09-20T03:56:48.529Z,10.57
2022-09-20T04:00:01.813Z,11.02
2022-09-20T04:02:54.901Z,14.73
2022-09-20T04:05:45.907Z,15.88
2022-09-20T04:08:40.048Z,12.88
2022-09-20T04:11:23.235Z,11.30
2022-09-20T04:13:59.257Z,11.57
2022-09-20T04:16:42.494Z,10.52
2022-09-20T04:19:23.450Z,11.43
2022-09-20T04:21:57.370Z,12.77
2022-09-20T04:24:41.923Z,13.02
2022-09-20T04:27:20.664Z,10.80
2022-09-20T04:30:00.316Z,12.15
2022-09-20T04:32:41.197Z,12.52
2022-09-20T04:35:54.034Z,13.73
2022-09-20T04:38:23.955Z,11.98
2022-09-20T04:41:51.355Z,13.40
2022-09-20T04:45:17.016Z,14.43
2022-09-20T04:48:35.900Z,13.63
2022-09-20T04:52:06.574Z,13.55
2022-09-20T04:55:25.245Z,14.60
2022-09-20T04:58:42.304Z,15.10
2022-09-20T05:02:15.652Z,12.30
2022-09-20T05:05:31.756Z,12.02
2022-09-20T05:08:58.890Z,11.93
2022-09-20T05:12:14.052Z,11.80
2022-09-20T05:15:19.173Z,11.35
2022-09-20T05:18:17.927Z,12.35
2022-09-20T05:21:11.522Z,12.80
2022-09-20T05:24:01.619Z,12.50
2022-09-20T05:26:51.422Z,12.73
2022-09-20T05:29:32.718Z,12.27
2022-09-20T05:32:13.036Z,14.52
2022-09-20T05:34:52.059Z,12.20
2022-09-20T05:37:39.009Z,13.00
2022-09-20T05:40:24.978Z,13.45
2022-09-20T05:43:03.893Z,13.93
2022-09-20T05:50:46.075Z,13.45
2022-09-20T05:54:16.085Z,16.30
2022-09-20T05:56:56.383Z,16.58
2022-09-20T05:59:42.747Z,15.25
2022-09-20T06:02:39.926Z,16.92
2022-09-20T06:05:17.654Z,17.92
2022-09-20T06:08:18.778Z,16.88
2022-09-20T06:11:37.767Z,18.25
2022-09-20T06:14:25.337Z,16.75
2022-09-20T06:17:06.121Z,19.52
2022-09-20T06:19:45.552Z,16.55
2022-09-20T06:22:23.984Z,16.90
2022-09-20T06:25:02.690Z,16.33
2022-09-20T06:27:40.778Z,19.98
2022-09-20T06:30:19.115Z,17.75
2022-09-20T06:33:00.706Z,18.02
2022-09-20T06:35:39.079Z,16.65
2022-09-20T06:39:04.713Z,18.85
2022-09-20T06:41:37.734Z,17.17
2022-09-20T06:44:08.399Z,18.70
2022-09-20T06:46:38.574Z,18.10
2022-09-20T06:49:09.624Z,18.52
2022-09-20T06:51:40.621Z,18.15
2022-09-20T06:54:18.578Z,18.48
2022-09-20T06:56:50.111Z,20.23
2022-09-20T06:59:20.083Z,23.10
2022-09-20T07:01:49.056Z,18.20
2022-09-20T07:04:17.821Z,19.10
2022-09-20T07:06:46.424Z,21.20
2022-09-20T07:09:15.283Z,18.70
2022-09-20T07:11:46.307Z,18.45
2022-09-20T07:14:15.629Z,19.55
2022-09-20T07:16:45.890Z,19.90
2022-09-20T07:19:15.126Z,18.70
2022-09-20T07:21:43.774Z,18.20
2022-09-20T07:24:15.161Z,18.77
2022-09-20T07:26:57.829Z,18.25
2022-09-20T07:29:27.220Z,22.33
2022-09-20T07:36:29.386Z,15.57
2022-09-20T07:38:58.290Z,15.73
2022-09-20T07:41:30.517Z,17.98
2022-09-20T07:44:20.091Z,15.90
2022-09-20T07:46:49.753Z,15.20
2022-09-20T07:49:18.760Z,13.52
2022-09-20T07:51:49.016Z,14.75
2022-09-20T07:54:18.603Z,12.52
2022-09-20T07:56:48.298Z,11.63
2022-09-20T07:59:17.568Z,13.75
2022-09-20T08:06:21.456Z,14.75
2022-09-20T08:08:52.332Z,14.50
2022-09-20T08:11:28.686Z,12.82
2022-09-20T08:14:08.017Z,13.30
2022-09-20T08:16:42.878Z,15.85
2022-09-20T08:19:17.691Z,14.68
2022-09-20T08:21:46.989Z,17.23
2022-09-20T08:24:17.801Z,14.85
2022-09-20T08:26:46.696Z,17.70
2022-09-20T08:29:16.111Z,18.13
2022-09-20T08:31:45.274Z,19.67
2022-09-20T08:34:16.193Z,17.17
2022-09-20T08:36:50.130Z,19.35
2022-09-20T08:42:20.054Z,20.15
2022-09-20T08:44:58.741Z,20.58
2022-09-20T08:47:32.089Z,18.88
2022-09-20T08:50:16.834Z,18.00
2022-09-20T08:52:49.397Z,16.42
2022-09-20T08:55:23.132Z,16.40
2022-09-20T08:57:56.320Z,17.30
2022-09-20T09:00:29.778Z,20.80
2022-09-20T09:03:05.403Z,22.20
2022-09-20T09:05:38.344Z,18.55
2022-09-20T09:08:16.478Z,18.10
2022-09-20T09:10:52.887Z,17.17
2022-09-20T09:13:32.847Z,18.70
2022-09-20T09:16:10.778Z,18.45
2022-09-20T09:23:44.790Z,18.05
2022-09-20T09:26:22.543Z,18.90
2022-09-20T09:29:16.671Z,15.32
2022-09-20T09:31:47.186Z,15.50
2022-09-20T09:34:35.409Z,15.55
2022-09-20T09:37:04.412Z,17.55
2022-09-20T09:44:11.048Z,15.48
2022-09-20T09:46:41.468Z,14.48
2022-09-20T09:49:17.274Z,16.95
2022-09-20T09:52:05.442Z,15.40
2022-09-20T09:54:39.509Z,14.90
2022-09-20T09:57:26.902Z,15.93
2022-09-20T10:00:16.064Z,15.27
2022-09-20T10:03:17.092Z,13.65
2022-09-20T10:06:04.953Z,14.68
2022-09-20T10:08:49.820Z,12.95
2022-09-20T10:11:38.957Z,11.43
2022-09-20T10:14:29.643Z,11.52
2022-09-20T10:17:20.747Z,13.27
2022-09-20T10:20:16.477Z,13.63
2022-09-20T10:23:29.962Z,12.30
2022-09-20T10:25:58.346Z,13.45
2022-09-20T10:28:50.443Z,11.35
2022-09-20T10:31:42.568Z,13.57
2022-09-20T10:34:45.060Z,11.95
2022-09-20T10:37:23.491Z,10.85
2022-09-20T10:40:08.312Z,9.88
2022-09-20T10:43:05.439Z,9.05
2022-09-20T10:50:28.225Z,9.75
2022-09-20T10:53:13.705Z,9.90
2022-09-20T10:55:53.066Z,9.50
2022-09-20T10:59:04.344Z,8.68
2022-09-20T11:01:43.575Z,9.85
2022-09-20T11:04:59.057Z,8.13
2022-09-20T11:07:48.708Z,7.45
2022-09-20T11:10:24.361Z,6.88
2022-09-20T11:13:02.241Z,7.10
2022-09-20T11:15:41.791Z,6.47
2022-09-20T11:18:23.637Z,6.63
2022-09-20T11:21:08.172Z,6.35
2022-09-20T11:23:51.037Z,5.75
2022-09-20T11:26:28.914Z,5.13
2022-09-20T11:29:06.105Z,4.70
2022-09-20T11:31:42.999Z,4.57
2022-09-20T11:34:22.197Z,5.82
2022-09-20T11:36:58.836Z,4.43
2022-09-20T11:39:38.223Z,4.97
2022-09-20T11:42:13.133Z,4.45
2022-09-20T11:44:43.884Z,4.43
2022-09-20T11:47:42.865Z,4.85
2022-09-20T11:51:07.142Z,5.53
2022-09-20T11:58:13.429Z,3.97
2022-09-20T12:00:47.914Z,4.32
2022-09-20T12:03:33.653Z,4.90
2022-09-20T12:06:05.642Z,5.10
2022-09-20T12:08:38.981Z,4.82
2022-09-20T13:04:56.423Z,2.80
2022-09-20T13:07:42.764Z,2.80
2022-09-20T13:10:27.594Z,3.10
2022-09-20T13:13:04.751Z,3.40
2022-09-20T13:15:34.931Z,3.65
2022-09-20T13:18:04.075Z,2.75
2022-09-20T13:20:35.892Z,4.10
2022-09-20T13:23:06.479Z,3.00
2022-09-20T13:25:40.034Z,2.92
2022-09-20T13:28:21.407Z,3.17
2022-09-20T13:30:50.083Z,2.72
2022-09-20T13:33:24.429Z,2.92
2022-09-20T13:40:34.331Z,3.05
2022-09-20T13:43:23.007Z,3.97
2022-09-20T13:45:57.374Z,3.20
2022-09-20T13:48:28.582Z,2.55
2022-09-20T13:50:58.789Z,2.90
2022-09-20T13:53:41.428Z,3.63
2022-09-20T13:56:22.531Z,2.90
2022-09-20T13:58:52.786Z,3.58
2022-09-20T14:01:30.966Z,4.55
2022-09-20T14:04:07.974Z,2.47
2022-09-20T14:06:37.910Z,2.35
2022-09-20T14:09:11.506Z,2.45
2022-09-20T14:11:42.122Z,2.58
2022-09-20T14:14:19.889Z,2.80
2022-09-20T14:16:54.177Z,3.03
2022-09-20T14:19:32.259Z,4.18
2022-09-20T14:22:06.418Z,2.80
2022-09-20T14:24:37.529Z,3.50
2022-09-20T14:27:22.248Z,3.75
2022-09-20T14:29:53.252Z,2.70
2022-09-20T14:32:48.160Z,3.45
2022-09-20T14:35:20.425Z,3.05
2022-09-20T14:37:53.161Z,3.20
2022-09-20T14:44:55.242Z,6.28
2022-09-20T14:47:30.163Z,4.70
2022-09-20T14:49:59.141Z,4.43
2022-09-20T14:52:43.742Z,2.50
2022-09-20T14:55:28.389Z,2.50
2022-09-20T14:58:05.581Z,4.05
2022-09-20T15:00:51.753Z,3.33
2022-09-20T15:03:28.317Z,2.55
2022-09-20T15:05:57.488Z,2.45
2022-09-20T15:08:26.518Z,4.18
2022-09-20T15:10:55.078Z,2.92
2022-09-20T15:13:24.039Z,3.17
2022-09-20T15:15:55.408Z,2.95
2022-09-20T15:18:27.316Z,5.35
2022-09-20T15:20:56.755Z,7.43
2022-09-20T15:23:25.388Z,4.53
2022-09-20T15:25:56.342Z,3.92
2022-09-20T15:28:26.765Z,4.38
2022-09-20T15:30:58.604Z,3.53
2022-09-20T15:33:32.330Z,2.40
2022-09-20T15:36:03.263Z,5.55
2022-09-20T15:38:32.220Z,4.13
2022-09-20T15:41:04.745Z,3.67
2022-09-20T15:43:34.033Z,6.00
2022-09-20T15:46:20.503Z,4.30
2022-09-20T15:48:49.698Z,7.00
2022-09-20T15:51:18.516Z,5.60
2022-09-20T15:53:55.577Z,5.03
2022-09-20T15:56:27.458Z,8.68
2022-09-20T15:59:00.339Z,3.30
2022-09-20T16:01:34.003Z,6.03
2022-09-20T16:04:07.561Z,5.50
2022-09-20T16:06:37.355Z,5.43
2022-09-20T16:09:07.735Z,5.70
2022-09-20T16:11:37.693Z,4.35
2022-09-20T16:14:07.739Z,3.97
2022-09-20T16:16:40.635Z,2.33
2022-09-20T16:19:20.926Z,1.83
2022-09-20T16:21:57.651Z,3.85
2022-09-20T16:24:30.592Z,1.90
2022-09-20T16:27:01.355Z,1.95
2022-09-20T16:29:31.476Z,1.65
2022-09-20T16:32:03.959Z,2.95
2022-09-20T16:34:34.962Z,2.70
2022-09-20T16:37:09.346Z,2.72
2022-09-20T16:39:38.599Z,2.83
2022-09-20T16:42:09.092Z,3.20
2022-09-20T16:44:40.521Z,3.17
2022-09-20T16:47:21.974Z,3.25
2022-09-20T16:49:51.986Z,5.00
2022-09-20T16:52:20.996Z,5.50
2022-09-20T16:54:49.968Z,3.85
2022-09-20T16:57:19.266Z,3.20
2022-09-20T16:59:48.264Z,3.53
2022-09-20T17:02:18.823Z,4.45
2022-09-20T17:04:47.567Z,6.78
2022-09-20T17:07:16.413Z,7.57
2022-09-20T17:09:45.544Z,7.97
2022-09-20T17:12:15.076Z,8.10
2022-09-20T17:14:44.137Z,22.38
2022-09-20T17:17:13.580Z,18.73
2022-09-20T17:19:43.528Z,28.27
2022-09-20T17:22:12.864Z,15.27
2022-09-20T17:24:42.076Z,14.95
2022-09-20T17:27:11.344Z,14.02
2022-09-20T17:29:40.146Z,8.75
2022-09-20T17:32:09.081Z,10.30
2022-09-20T17:34:37.944Z,8.43
2022-09-20T17:37:08.239Z,6.35
2022-09-20T17:39:36.831Z,8.13
2022-09-20T17:42:05.869Z,6.55
2022-09-20T17:44:36.821Z,6.75
2022-09-20T17:47:06.397Z,9.13
2022-09-20T17:49:35.006Z,14.73
2022-09-20T17:52:07.977Z,15.30
2022-09-20T17:54:37.898Z,16.95
2022-09-20T17:57:06.728Z,21.98
2022-09-20T17:59:36.690Z,17.65
2022-09-20T18:02:05.822Z,17.90
2022-09-20T18:04:34.547Z,17.80
2022-09-20T18:07:04.174Z,15.52
2022-09-20T18:09:32.774Z,14.95
2022-09-20T18:12:04.997Z,13.82
2022-09-20T18:14:33.564Z,12.80
2022-09-20T18:17:02.229Z,12.88
2022-09-20T18:19:33.956Z,15.27
2022-09-20T18:22:03.584Z,13.38
2022-09-20T18:24:32.724Z,13.70
2022-09-20T18:27:04.399Z,10.77
2022-09-20T18:29:36.720Z,12.23
2022-09-20T18:32:08.522Z,14.38
2022-09-20T18:34:37.283Z,11.70
2022-09-20T18:37:10.068Z,11.10
2022-09-20T18:39:43.058Z,12.30
2022-09-20T18:42:13.167Z,10.88
2022-09-20T18:44:43.926Z,11.90
2022-09-20T18:47:12.661Z,12.55
2022-09-20T18:49:41.435Z,14.00
2022-09-20T18:52:12.486Z,12.07
2022-09-20T18:54:41.365Z,12.50
2022-09-20T18:57:13.473Z,13.15
2022-09-20T18:59:53.635Z,12.52
2022-09-20T19:02:49.364Z,12.00
2022-09-20T19:05:29.438Z,13.38
2022-09-20T19:08:26.766Z,13.82
2022-09-20T19:11:04.516Z,13.48
2022-09-20T19:13:46.044Z,11.75
2022-09-20T19:16:22.358Z,15.43
2022-09-20T19:19:26.562Z,14.95
2022-09-20T19:22:16.317Z,12.43
2022-09-20T19:25:16.592Z,12.45
2022-09-20T19:27:46.226Z,11.85
2022-09-20T19:30:18.066Z,14.18
2022-09-20T19:32:48.082Z,14.18
2022-09-20T19:35:25.159Z,14.98
2022-09-20T19:42:39.114Z,15.50
2022-09-20T19:45:25.445Z,12.50
2022-09-20T19:48:07.938Z,15.38
2022-09-20T19:50:44.729Z,15.57
2022-09-20T19:53:14.945Z,13.88
2022-09-20T19:55:49.033Z,16.00
2022-09-20T19:58:18.625Z,15.90
2022-09-20T20:00:49.741Z,15.25
2022-09-20T20:03:19.097Z,15.02
2022-09-20T20:06:07.205Z,13.75
2022-09-20T20:13:42.983Z,12.80
2022-09-20T20:16:21.020Z,11.50
2022-09-20T20:19:14.207Z,11.88
2022-09-20T20:21:52.727Z,9.70
2022-09-20T20:28:53.694Z,7.75
2022-09-20T20:31:24.266Z,10.55
2022-09-20T20:43:02.051Z,9.40
2022-09-20T20:45:31.271Z,8.95
2022-09-20T20:48:01.294Z,8.52
2022-09-20T20:50:30.589Z,8.43
2022-09-20T20:57:32.063Z,7.78
2022-09-20T21:00:00.829Z,8.32
2022-09-20T21:02:29.566Z,9.27
2022-09-20T21:04:59.552Z,11.98
2022-09-20T21:12:02.550Z,11.00
2022-09-20T21:14:31.967Z,13.43
2022-09-20T21:17:01.875Z,11.50
2022-09-20T21:19:30.604Z,10.90
2022-09-20T21:22:00.759Z,11.63
2022-09-20T21:24:29.386Z,11.45
2022-09-20T21:26:57.934Z,10.35
2022-09-20T21:29:26.685Z,11.75
2022-09-20T21:31:55.540Z,9.80
2022-09-20T21:34:24.049Z,7.32
2022-09-20T21:36:52.802Z,9.23
2022-09-20T21:39:22.725Z,9.82
2022-09-20T21:41:52.617Z,9.82
2022-09-20T21:48:53.544Z,8.43
2022-09-20T21:51:23.310Z,8.93
2022-09-20T21:53:56.438Z,9.45
2022-09-20T21:56:28.988Z,8.60
2022-09-20T21:58:58.042Z,9.23
2022-09-20T22:01:29.439Z,5.40
2022-09-20T22:04:00.931Z,6.00
2022-09-20T22:06:33.736Z,6.45
2022-09-20T22:09:06.003Z,4.70
2022-09-20T22:11:39.967Z,6.10
2022-09-20T22:14:10.328Z,4.78
2022-09-20T22:16:41.660Z,4.97
2022-09-20T22:19:13.123Z,5.53
2022-09-20T22:21:44.560Z,5.57
2022-09-20T22:24:15.557Z,6.95
2022-09-20T22:26:47.940Z,4.50
2022-09-20T22:29:17.539Z,4.93
2022-09-20T22:31:49.210Z,6.13
2022-09-20T22:34:19.834Z,5.20
2022-09-20T22:41:21.897Z,7.38
2022-09-20T22:43:52.453Z,5.75
2022-09-20T22:46:24.450Z,6.20
2022-09-20T22:48:53.268Z,8.15
2022-09-20T22:51:24.889Z,5.57
2022-09-20T22:53:54.303Z,5.68
2022-09-20T22:56:25.820Z,5.43
2022-09-20T22:59:00.047Z,8.25
2022-09-20T23:01:31.494Z,5.20
2022-09-20T23:04:04.092Z,5.40
2022-09-20T23:06:36.979Z,5.32
2022-09-20T23:09:09.543Z,6.90
2022-09-20T23:11:39.818Z,7.60
2022-09-20T23:14:14.032Z,5.97
2022-09-20T23:16:44.358Z,7.35
2022-09-20T23:19:14.668Z,6.43
2022-09-20T23:21:44.920Z,7.32
2022-09-20T23:24:16.583Z,5.82
2022-09-20T23:26:46.306Z,5.82
2022-09-20T23:29:18.251Z,6.18
2022-09-20T23:31:47.984Z,6.25
2022-09-20T23:34:18.817Z,6.93
2022-09-20T23:36:47.952Z,6.82
2022-09-20T23:39:16.738Z,6.45
2022-09-20T23:41:50.702Z,9.35
2022-09-20T23:44:21.462Z,7.85
2022-09-20T23:46:50.238Z,8.48
2022-09-20T23:49:19.026Z,7.40
2022-09-20T23:51:47.646Z,6.10
2022-09-20T23:54:16.443Z,7.32
2022-09-20T23:56:44.974Z,7.93
2022-09-20T23:59:13.502Z,7.78
